Time;durP1;ratioP1;P1;durP2;ratioP2;P2;SDS_P1;SDS_P2;PMS_P1;PMS_P2;Temp;Humidity;BMP_temperature;BMP_pressure;BME280_temperature;BME280_humidity;BME280_pressure;Samples;Min_cycle;Max_cycle;Signal;HPM_P1;HPM_P2
2024/01/21 00:01:53;;;;;;;6.20;3.10;;;;;;;17.20;43.21;97602.38;10366140;28;20552;-32
2024/01/21 00:06:53;;;;;;;4.72;3.35;;;;;;;17.21;42.83;97625.19;10366503;28;20037;-33
2024/01/21 00:11:54;;;;;;;5.20;3.37;;;;;;;17.23;42.90;97617.63;10365514;28;20030;-33
2024/01/21 00:16:55;;;;;;;3.83;3.22;;;;;;;17.23;42.92;97617.63;10364919;28;20045;-34
2024/01/21 00:21:55;;;;;;;4.72;3.05;;;;;;;17.22;42.00;97620.97;10363684;28;20038;-32
2024/01/21 00:26:56;;;;;;;4.03;2.70;;;;;;;17.20;42.05;97627.66;10365034;28;20046;-33
2024/01/21 00:31:57;;;;;;;3.45;2.55;;;;;;;17.19;42.54;97623.44;10364722;28;20033;-32
2024/01/21 00:36:57;;;;;;;4.00;2.77;;;;;;;17.16;42.45;97625.91;10365862;28;20033;-32
2024/01/21 00:41:57;;;;;;;2.97;2.33;;;;;;;17.15;41.89;97619.16;10364190;28;20044;-33
2024/01/21 00:46:58;;;;;;;3.77;2.77;;;;;;;17.13;41.74;97609.00;10364541;28;20498;-32
2024/01/21 00:51:58;;;;;;;2.47;2.27;;;;;;;17.15;41.91;97614.09;10364572;28;20034;-32
2024/01/21 00:56:59;;;;;;;3.35;2.33;;;;;;;17.12;41.99;97609.81;10363642;28;20044;-36
2024/01/21 01:01:59;;;;;;;3.90;2.40;;;;;;;17.06;41.63;97618.97;10363360;28;20037;-33
2024/01/21 01:06:59;;;;;;;3.97;2.03;;;;;;;17.10;41.99;97628.31;10364341;28;20052;-34
2024/01/21 01:12:00;;;;;;;3.77;2.47;;;;;;;17.09;41.75;97626.63;10363168;28;20116;-32
2024/01/21 01:17:00;;;;;;;4.10;2.50;;;;;;;17.07;41.56;97618.16;10362896;28;20448;-33
2024/01/21 01:22:01;;;;;;;2.90;2.23;;;;;;;17.06;41.70;97598.75;10363413;28;20040;-33
2024/01/21 01:27:01;;;;;;;5.68;2.20;;;;;;;17.06;41.30;97596.22;10362836;28;20040;-32
2024/01/21 01:32:02;;;;;;;3.30;2.60;;;;;;;17.04;41.40;97577.59;10362456;28;20045;-34
2024/01/21 01:37:02;;;;;;;2.60;1.88;;;;;;;17.05;41.23;97576.75;10363058;28;20030;-33
2024/01/21 01:42:03;;;;;;;3.17;2.87;;;;;;;17.04;41.39;97590.25;10360177;28;20042;-34
2024/01/21 01:47:04;;;;;;;3.03;2.33;;;;;;;17.05;40.99;97594.47;10361810;28;20305;-32
2024/01/21 01:52:05;;;;;;;2.35;2.05;;;;;;;17.05;41.10;97602.06;10362739;28;20068;-33
2024/01/21 01:57:07;;;;;;;2.97;2.17;;;;;;;17.03;40.57;97608.78;10361555;28;20030;-35
2024/01/21 02:02:10;;;;;;;2.15;1.92;;;;;;;16.96;40.80;97592.63;10359849;28;20140;-31
2024/01/21 02:07:10;;;;;;;1.88;1.70;;;;;;;17.02;40.85;97607.94;10362223;28;20029;-33
2024/01/21 02:12:12;;;;;;;1.77;1.53;;;;;;;17.03;40.78;97608.78;10361517;28;20052;-33
2024/01/21 02:17:13;;;;;;;2.92;1.80;;;;;;;17.04;40.21;97602.91;10361306;28;20030;-34
2024/01/21 02:22:14;;;;;;;2.00;1.60;;;;;;;16.99;40.45;97605.34;10358705;28;20036;-32
2024/01/21 02:27:14;;;;;;;2.20;1.73;;;;;;;17.02;40.31;97599.50;10361601;28;20113;-32
2024/01/21 02:32:15;;;;;;;2.20;1.77;;;;;;;16.99;40.19;97594.38;10360163;28;20029;-32
2024/01/21 02:37:15;;;;;;;1.90;1.57;;;;;;;16.91;40.05;97589.16;10361980;28;20647;-31
2024/01/21 02:42:15;;;;;;;1.90;1.70;;;;;;;16.96;40.37;97591.78;10360312;28;20519;-33
2024/01/21 02:47:16;;;;;;;1.93;1.57;;;;;;;16.95;39.93;97588.41;10359959;28;20073;-32
2024/01/21 02:52:17;;;;;;;2.35;1.55;;;;;;;16.96;40.00;97579.13;10358090;28;20302;-34
2024/01/21 02:57:17;;;;;;;1.67;1.30;;;;;;;16.96;39.79;97577.47;10360234;28;20048;-32
2024/01/21 03:02:18;;;;;;;1.97;1.60;;;;;;;16.95;39.87;97565.63;10357894;28;20823;-32
2024/01/21 03:07:18;;;;;;;2.20;1.70;;;;;;;16.96;39.51;97558.88;10360293;28;20034;-33
2024/01/21 03:12:20;;;;;;;1.80;1.60;;;;;;;16.94;39.50;97563.94;10360291;28;20033;-32
2024/01/21 03:17:21;;;;;;;2.78;1.20;;;;;;;16.94;39.62;97563.06;10360038;28;20030;-32
2024/01/21 03:22:21;;;;;;;1.93;1.40;;;;;;;16.94;39.87;97551.28;10358225;28;20026;-33
2024/01/21 03:27:21;;;;;;;1.50;1.27;;;;;;;16.90;39.50;97548.66;10365096;28;20038;-32
2024/01/21 03:32:22;;;;;;;1.80;1.23;;;;;;;16.97;39.79;97542.88;10366561;28;20680;-33
2024/01/21 03:37:22;;;;;;;1.50;1.23;;;;;;;16.98;39.73;97549.66;10368046;28;20030;-32
2024/01/21 03:42:23;;;;;;;1.63;1.30;;;;;;;16.98;39.59;97552.22;10367304;28;20041;-32
2024/01/21 03:47:23;;;;;;;1.57;1.10;;;;;;;17.00;39.53;97548.03;10367040;28;20708;-33
2024/01/21 03:52:23;;;;;;;1.17;1.00;;;;;;;16.99;39.42;97551.38;10367177;28;20374;-32
2024/01/21 03:57:24;;;;;;;2.80;1.83;;;;;;;16.97;39.45;97545.41;10366704;28;20036;-33
2024/01/21 04:02:25;;;;;;;1.87;1.20;;;;;;;16.96;39.30;97526.00;10365640;28;20815;-33
2024/01/21 04:07:25;;;;;;;1.40;0.75;;;;;;;16.96;38.53;97521.81;10366197;28;20625;-32
2024/01/21 04:12:26;;;;;;;1.23;1.00;;;;;;;16.96;38.57;97513.34;10365973;28;20418;-31
2024/01/21 04:17:27;;;;;;;1.02;0.70;;;;;;;16.94;39.16;97515.88;10365705;28;20438;-34
2024/01/21 04:22:27;;;;;;;1.55;1.23;;;;;;;16.93;38.39;97515.84;10362403;28;20033;-31
2024/01/21 04:27:27;;;;;;;1.37;0.83;;;;;;;16.88;38.85;97505.63;10365366;28;20042;-31
2024/01/21 04:32:28;;;;;;;0.87;0.87;;;;;;;16.89;38.51;97511.56;10364052;28;20116;-33
2024/01/21 04:37:28;;;;;;;2.17;1.07;;;;;;;16.88;38.54;97502.25;10364884;28;20291;-33
2024/01/21 04:42:29;;;;;;;1.20;1.10;;;;;;;16.90;38.65;97505.69;10364759;28;20513;-33
2024/01/21 04:47:32;;;;;;;2.03;0.90;;;;;;;16.90;38.49;97493.03;10364482;28;20038;-31
2024/01/21 04:52:32;;;;;;;1.35;0.93;;;;;;;16.92;38.40;97506.56;10364455;28;20304;-30
2024/01/21 04:57:35;;;;;;;0.97;0.63;;;;;;;16.96;38.00;97504.09;10364618;28;20563;-34
2024/01/21 05:02:35;;;;;;;1.80;0.70;;;;;;;16.96;38.11;97505.75;10362341;28;20034;-32
2024/01/21 05:07:36;;;;;;;1.80;1.05;;;;;;;16.94;38.41;97508.28;10363153;28;20041;-33
2024/01/21 05:12:36;;;;;;;1.33;0.70;;;;;;;16.95;38.50;97517.56;10362825;28;20998;-33
2024/01/21 05:17:36;;;;;;;1.13;0.90;;;;;;;16.92;38.41;97521.72;10363388;28;20040;-32
2024/01/21 05:22:37;;;;;;;1.20;0.73;;;;;;;16.91;38.15;97530.97;10362187;28;20030;-33
2024/01/21 05:27:37;;;;;;;1.23;0.70;;;;;;;16.87;38.79;97551.13;10378858;28;20779;-33
2024/01/21 05:32:38;;;;;;;0.73;0.67;;;;;;;16.86;38.11;97549.41;10361928;28;20037;-35
2024/01/21 05:37:39;;;;;;;1.40;0.52;;;;;;;16.86;38.43;97574.72;10362424;28;20037;-31
2024/01/21 05:42:39;;;;;;;0.70;0.60;;;;;;;16.84;38.38;97569.63;10362720;28;20034;-32
2024/01/21 05:47:39;;;;;;;1.30;0.65;;;;;;;16.85;38.23;97573.00;10361191;28;20034;-32
2024/01/21 05:52:40;;;;;;;1.77;0.90;;;;;;;16.86;38.32;97597.47;10361607;28;20045;-32
2024/01/21 05:57:40;;;;;;;1.17;0.70;;;;;;;16.85;38.44;97598.31;10362143;28;20780;-32
2024/01/21 06:02:42;;;;;;;0.90;0.60;;;;;;;16.85;38.67;97608.41;10361775;28;20116;-33
2024/01/21 06:07:44;;;;;;;1.15;0.70;;;;;;;16.82;38.74;97598.25;10361422;28;20041;-33
2024/01/21 06:12:47;;;;;;;1.45;0.65;;;;;;;16.85;37.96;97588.19;10375996;28;20478;-34
2024/01/21 06:17:50;;;;;;;1.38;0.80;;;;;;;16.90;38.52;97581.56;10358368;28;20077;-32
2024/01/21 06:22:51;;;;;;;1.60;0.90;;;;;;;16.94;38.17;97584.19;10353179;28;20045;-34
2024/01/21 06:27:51;;;;;;;0.90;0.70;;;;;;;16.86;38.18;97551.94;10359420;28;20091;-34
2024/01/21 06:32:52;;;;;;;1.10;0.73;;;;;;;17.00;38.15;97570.78;10358215;28;20379;-32
2024/01/21 06:37:53;;;;;;;0.80;0.63;;;;;;;16.95;38.18;97592.59;10354195;28;20042;-36
2024/01/21 06:42:53;;;;;;;1.23;0.60;;;;;;;16.92;37.63;97569.78;10350113;28;20297;-33
2024/01/21 06:47:54;;;;;;;0.65;0.65;;;;;;;16.99;37.84;97591.84;10353787;28;20105;-39
2024/01/21 06:52:54;;;;;;;1.67;0.90;;;;;;;17.00;37.52;97614.63;10352839;28;20095;-33
2024/01/21 06:57:54;;;;;;;0.67;0.50;;;;;;;17.00;37.38;97613.78;10356876;28;20030;-33
2024/01/21 07:02:55;;;;;;;1.43;0.70;;;;;;;16.96;37.39;97623.00;10362426;28;20253;-34
2024/01/21 07:07:56;;;;;;;1.70;0.68;;;;;;;16.94;36.96;97612.00;10365967;28;20046;-33
2024/01/21 07:12:56;;;;;;;2.88;1.05;;;;;;;16.94;36.67;97618.72;10363844;28;20084;-31
2024/01/21 07:17:57;;;;;;;1.33;0.77;;;;;;;16.96;36.42;97617.94;10364820;28;20036;-33
2024/01/21 07:22:57;;;;;;;1.20;0.80;;;;;;;16.94;35.70;97634.75;10359862;28;20307;-32
2024/01/21 07:27:58;;;;;;;2.60;0.68;;;;;;;16.99;35.58;97632.31;10365992;28;20667;-32
2024/01/21 07:32:58;;;;;;;2.42;1.20;;;;;;;16.87;37.76;97627.00;10363109;28;20684;-31
2024/01/21 07:37:59;;;;;;;2.33;1.23;;;;;;;16.87;37.79;97627.00;10363322;28;20038;-32
2024/01/21 07:42:59;;;;;;;2.20;1.10;;;;;;;16.88;37.55;97639.69;10362288;28;20300;-32
2024/01/21 07:48:02;;;;;;;1.63;1.03;;;;;;;16.90;38.05;97638.03;10361980;28;20034;-34
2024/01/21 07:53:02;;;;;;;2.28;0.82;;;;;;;16.87;37.55;97632.06;10361854;28;20792;-32
2024/01/21 07:58:03;;;;;;;3.20;1.20;;;;;;;16.94;36.64;97642.34;10363070;28;20033;-31
2024/01/21 08:03:05;;;;;;;4.63;1.33;;;;;;;16.93;38.34;97642.31;10361290;28;20049;-32
2024/01/21 08:08:06;;;;;;;3.10;2.35;;;;;;;16.88;38.47;97661.59;10362066;28;20042;-33
2024/01/21 08:13:06;;;;;;;1.33;1.00;;;;;;;16.88;38.75;97669.16;10362258;28;20037;-32
2024/01/21 08:18:07;;;;;;;2.50;1.13;;;;;;;16.86;39.16;97674.22;10361728;28;20061;-32
2024/01/21 08:23:07;;;;;;;3.42;1.00;;;;;;;16.80;39.89;97670.69;10356371;28;20371;-33
2024/01/21 08:28:08;;;;;;;3.27;1.80;;;;;;;16.81;39.60;97674.94;10361232;28;20061;-33
2024/01/21 08:33:09;;;;;;;3.07;1.63;;;;;;;16.86;37.59;97676.75;10360214;28;20046;-34
2024/01/21 08:38:10;;;;;;;5.15;1.10;;;;;;;16.77;39.84;97679.91;10360519;28;20462;-32
2024/01/21 08:43:10;;;;;;;4.13;1.20;;;;;;;16.81;39.60;97682.53;10361239;28;20034;-32
2024/01/21 08:48:11;;;;;;;6.07;1.17;;;;;;;16.86;39.15;97681.81;10360686;28;20080;-31
2024/01/21 08:53:12;;;;;;;5.10;1.77;;;;;;;16.89;36.63;97688.63;10359843;28;20038;-30
2024/01/21 08:58:12;;;;;;;4.03;1.90;;;;;;;16.90;36.23;97688.63;10361517;28;20041;-31
2024/01/21 09:03:15;;;;;;;4.72;1.58;;;;;;;17.15;33.81;97687.47;10353209;28;20038;-33
2024/01/21 09:08:16;;;;;;;3.90;2.30;;;;;;;16.98;34.28;97688.81;10356702;28;20677;-31
2024/01/21 09:13:17;;;;;;;7.30;1.80;;;;;;;17.18;34.27;97682.47;10359049;28;20050;-32
2024/01/21 09:18:17;;;;;;;4.20;1.83;;;;;;;17.28;34.58;97691.94;10361357;28;20022;-31
2024/01/21 09:23:18;;;;;;;3.10;1.90;;;;;;;17.32;34.21;97688.66;10362945;28;20058;-32
2024/01/21 09:28:18;;;;;;;4.93;2.00;;;;;;;17.36;34.44;97675.28;10362937;28;20048;-31
2024/01/21 09:33:20;;;;;;;4.70;1.63;;;;;;;17.42;34.39;97675.41;10358435;28;20140;-31
2024/01/21 09:38:21;;;;;;;3.25;1.88;;;;;;;17.45;35.53;97677.97;10361466;28;20410;-32
2024/01/21 09:43:22;;;;;;;4.07;1.88;;;;;;;17.48;35.77;97680.59;10361814;28;20537;-32
2024/01/21 09:48:23;;;;;;;2.65;1.58;;;;;;;17.49;36.12;97700.00;10362710;28;20026;-31
2024/01/21 09:53:23;;;;;;;3.08;2.00;;;;;;;17.48;35.81;97700.84;10361361;28;20049;-32
2024/01/21 09:58:26;;;;;;;2.65;1.40;;;;;;;17.39;35.75;97660.13;10361728;28;20056;-33
2024/01/21 10:03:27;;;;;;;2.25;1.42;;;;;;;17.52;35.32;97687.41;10361667;28;20030;-34
2024/01/21 10:08:28;;;;;;;3.30;1.70;;;;;;;17.52;35.65;97692.47;10361501;28;20033;-31
2024/01/21 10:13:30;;;;;;;3.33;1.67;;;;;;;17.52;36.28;97688.25;10360926;28;20037;-34
2024/01/21 10:18:30;;;;;;;2.28;1.35;;;;;;;17.54;36.11;97685.75;10361875;28;20105;-32
2024/01/21 10:23:34;;;;;;;4.38;1.95;;;;;;;17.55;36.36;97703.50;10361193;28;20048;-31
2024/01/21 10:28:35;;;;;;;1.92;1.25;;;;;;;17.55;36.45;97689.97;10360451;28;20034;-32
2024/01/21 10:33:35;;;;;;;2.88;1.58;;;;;;;17.58;36.40;97678.22;10363266;28;20513;-33
2024/01/21 10:38:46;;;;;;;2.00;1.27;;;;;;;17.54;36.63;97680.69;10372890;28;20103;-31
2024/01/21 10:43:48;;;;;;;3.13;1.67;;;;;;;17.59;36.98;97681.63;10373319;28;20072;-33
2024/01/21 10:48:49;;;;;;;3.25;1.75;;;;;;;17.59;37.03;97690.06;10375049;28;20425;-32
2024/01/21 10:53:51;;;;;;;2.55;1.52;;;;;;;17.59;36.93;97671.50;10372640;28;20030;-31
2024/01/21 10:58:52;;;;;;;3.03;1.77;;;;;;;17.59;36.98;97676.56;10373999;28;20033;-31
2024/01/21 11:04:07;;;;;;;2.35;1.80;;;;;;;17.61;36.86;97687.56;10374118;28;20320;-32
2024/01/21 11:09:08;;;;;;;2.50;1.42;;;;;;;17.61;37.02;97706.16;10372272;28;20077;-33
2024/01/21 11:14:32;;;;;;;2.90;1.13;;;;;;;17.62;37.98;97732.31;10370370;28;20053;-31
2024/01/21 11:19:42;;;;;;;8.93;3.13;;;;;;;17.55;37.81;97738.94;10369615;28;20041;-32
2024/01/21 11:24:45;;;;;;;7.45;1.88;;;;;;;17.49;38.80;97748.13;10369484;28;20536;-34
2024/01/21 11:29:48;;;;;;;3.70;1.90;;;;;;;17.53;38.27;97770.13;10371328;28;20026;-31
2024/01/21 11:34:49;;;;;;;11.10;1.70;;;;;;;17.53;38.20;97765.06;10370195;28;20037;-32
2024/01/21 11:39:49;;;;;;;9.63;1.70;;;;;;;17.55;39.32;97783.66;10372751;28;20034;-34
2024/01/21 11:44:49;;;;;;;5.17;1.67;;;;;;;17.55;38.44;97784.53;10369623;28;20490;-31
2024/01/21 11:49:52;;;;;;;5.32;1.77;;;;;;;17.57;38.57;97794.69;10367391;28;20046;-31
2024/01/21 11:54:53;;;;;;;3.55;1.50;;;;;;;17.50;38.18;97777.66;10366401;28;20037;-31
2024/01/21 11:59:54;;;;;;;1.77;1.45;;;;;;;17.56;38.40;97782.88;10365687;28;20060;-30
2024/01/21 12:04:55;;;;;;;4.25;1.48;;;;;;;17.56;38.54;97767.69;10366651;28;20029;-31
2024/01/21 12:09:55;;;;;;;2.10;1.52;;;;;;;17.59;38.75;97750.00;10365900;28;20057;-33
2024/01/21 12:14:55;;;;;;;4.57;1.83;;;;;;;17.57;38.06;97717.03;10364877;28;20108;-32
2024/01/21 12:19:56;;;;;;;1.95;1.48;;;;;;;17.57;38.08;97746.59;10366191;28;20034;-32
2024/01/21 12:24:57;;;;;;;6.45;2.08;;;;;;;17.55;38.08;97727.97;10365440;28;20048;-33
2024/01/21 12:29:57;;;;;;;2.83;2.10;;;;;;;17.57;38.30;97717.03;10364575;28;20504;-34
2024/01/21 12:34:58;;;;;;;3.47;1.70;;;;;;;17.58;38.03;97744.06;10362535;28;20048;-33
2024/01/21 12:40:00;;;;;;;2.50;1.90;;;;;;;17.58;38.21;97744.06;10364726;28;20414;-32
2024/01/21 12:45:01;;;;;;;3.28;1.85;;;;;;;17.49;38.28;97722.78;10364389;28;20066;-32
2024/01/21 12:50:01;;;;;;;2.55;1.40;;;;;;;17.60;38.21;97722.19;10364908;28;20648;-34
2024/01/21 12:55:03;;;;;;;2.30;1.53;;;;;;;17.60;38.13;97721.31;10364198;28;20040;-32
2024/01/21 13:00:04;;;;;;;1.63;1.10;;;;;;;17.59;38.18;97695.13;10363164;28;20092;-32
2024/01/21 13:05:05;;;;;;;4.75;1.70;;;;;;;17.44;36.82;97699.06;10363397;28;20645;-29
2024/01/21 13:10:05;;;;;;;5.55;2.05;;;;;;;17.60;38.32;97693.47;10364206;28;20030;-34
2024/01/21 13:15:08;;;;;;;4.45;1.45;;;;;;;17.61;37.65;97682.50;10361815;28;20107;-31
2024/01/21 13:20:09;;;;;;;6.28;1.65;;;;;;;17.59;36.11;97700.19;10363438;28;20510;-31
2024/01/21 13:25:10;;;;;;;4.70;1.58;;;;;;;17.61;36.56;97707.81;10360439;28;20076;-32
2024/01/21 13:35:32;;;;;;;6.15;1.92;;;;;;;17.70;36.46;97729.13;10362049;28;20100;-31
2024/01/21 13:40:33;;;;;;;2.80;2.03;;;;;;;17.71;36.83;97725.75;10362362;28;20132;-33
2024/01/21 13:45:34;;;;;;;5.57;1.65;;;;;;;17.71;36.51;97717.28;10361747;28;20038;-33
2024/01/21 13:50:36;;;;;;;5.82;2.22;;;;;;;17.69;36.74;97707.16;10362899;28;20037;-32
2024/01/21 13:55:37;;;;;;;4.38;1.75;;;;;;;17.72;36.54;97713.94;10362388;28;20073;-32
2024/01/21 14:00:38;;;;;;;3.35;1.70;;;;;;;17.65;36.55;97679.22;10361480;28;20512;-33
2024/01/21 14:05:39;;;;;;;4.43;1.60;;;;;;;17.70;36.20;97690.28;10361963;28;20505;-31
2024/01/21 14:10:40;;;;;;;3.95;1.50;;;;;;;17.69;36.64;97680.97;10360559;28;20077;-33
2024/01/21 14:15:40;;;;;;;3.47;1.67;;;;;;;17.69;37.28;97701.22;10360402;28;20458;-32
2024/01/21 14:20:41;;;;;;;7.77;2.20;;;;;;;17.69;36.81;97706.28;10362087;28;20384;-34
2024/01/21 14:25:43;;;;;;;2.77;1.73;;;;;;;17.66;36.59;97703.72;10361229;28;20033;-32
2024/01/21 14:30:44;;;;;;;2.83;1.60;;;;;;;17.65;37.21;97699.47;10360765;28;20296;-30
2024/01/21 14:35:46;;;;;;;7.50;1.83;;;;;;;17.45;33.82;97721.00;10358199;28;20034;-30
2024/01/21 14:40:46;;;;;;;4.00;2.25;;;;;;;17.51;34.94;97731.25;10359752;28;20280;-31
2024/01/21 14:45:46;;;;;;;4.00;1.70;;;;;;;17.61;36.00;97734.00;10360503;28;20056;-32
2024/01/21 14:50:47;;;;;;;5.73;2.50;;;;;;;17.58;35.78;97723.81;10360408;28;20038;-30
2024/01/21 14:55:47;;;;;;;5.90;1.77;;;;;;;17.67;37.44;97713.00;10360842;28;20728;-31
2024/01/21 15:00:48;;;;;;;6.90;2.40;;;;;;;17.41;35.31;97709.13;10359433;28;20026;-32
2024/01/21 15:05:48;;;;;;;4.43;1.87;;;;;;;17.53;35.50;97710.22;10360550;28;20046;-30
2024/01/21 15:10:49;;;;;;;5.03;2.43;;;;;;;17.66;35.48;97716.38;10360078;28;20401;-32
2024/01/21 15:15:49;;;;;;;9.45;2.33;;;;;;;17.69;36.63;97709.69;10358704;28;20291;-31
2024/01/21 15:20:50;;;;;;;4.13;1.70;;;;;;;17.75;36.69;97711.47;10363957;28;20021;-32
2024/01/21 15:25:50;;;;;;;3.15;1.60;;;;;;;17.77;35.84;97699.69;10366970;28;20410;-31
2024/01/21 15:30:51;;;;;;;2.30;1.27;;;;;;;17.77;36.70;97700.56;10367113;28;20045;-32
2024/01/21 15:35:51;;;;;;;7.47;1.52;;;;;;;17.76;36.61;97697.97;10364261;28;20034;-32
2024/01/21 15:40:51;;;;;;;2.37;1.53;;;;;;;17.77;36.98;97694.63;10361752;28;20077;-31
2024/01/21 15:45:52;;;;;;;5.27;1.53;;;;;;;17.75;37.62;97693.75;10360591;28;20033;-33
2024/01/21 15:50:52;;;;;;;1.90;1.30;;;;;;;17.75;39.38;97691.22;10364200;28;20739;-32
2024/01/21 15:55:53;;;;;;;4.45;1.67;;;;;;;17.74;39.77;97685.28;10361847;28;20638;-32
2024/01/21 16:00:53;;;;;;;4.07;2.40;;;;;;;17.74;40.14;97699.66;10363002;28;20118;-34
2024/01/21 16:05:54;;;;;;;2.23;1.03;;;;;;;17.75;40.38;97711.47;10362504;28;20395;-32
2024/01/21 16:10:54;;;;;;;3.63;1.43;;;;;;;17.75;40.72;97704.72;10362506;28;20456;-32
2024/01/21 16:15:54;;;;;;;3.43;1.63;;;;;;;17.73;40.74;97700.47;10361579;28;20296;-34
2024/01/21 16:20:56;;;;;;;3.13;1.38;;;;;;;17.71;40.79;97710.56;10362677;28;20033;-32
2024/01/21 16:25:56;;;;;;;2.47;1.50;;;;;;;17.73;40.32;97713.13;10361497;28;20417;-33
2024/01/21 16:30:57;;;;;;;2.37;1.17;;;;;;;17.71;42.00;97727.44;10360604;28;20034;-36
2024/01/21 16:35:57;;;;;;;2.08;1.15;;;;;;;17.72;41.88;97731.66;10362250;28;20041;-33
2024/01/21 16:40:59;;;;;;;2.87;1.30;;;;;;;17.71;41.90;97724.91;10361484;28;20041;-32
2024/01/21 16:46:02;;;;;;;3.10;1.20;;;;;;;17.69;43.29;97724.03;10360124;28;20181;-31
2024/01/21 16:51:07;;;;;;;4.55;1.60;;;;;;;17.68;43.74;97735.81;10361319;28;20080;-34
2024/01/21 16:56:08;;;;;;;2.28;1.30;;;;;;;17.65;42.05;97729.88;10360707;28;20042;-31
2024/01/21 17:01:08;;;;;;;4.70;1.20;;;;;;;17.69;43.30;97741.75;10359773;28;20037;-30
2024/01/21 17:06:09;;;;;;;4.28;1.60;;;;;;;17.68;43.13;97727.38;10360709;28;20053;-32
2024/01/21 17:11:11;;;;;;;2.75;1.20;;;;;;;17.68;41.92;97724.84;10358322;28;20073;-33
2024/01/21 17:16:11;;;;;;;13.20;1.58;;;;;;;17.70;42.50;97728.25;10347459;28;20104;-30
2024/01/21 17:21:12;;;;;;;2.27;1.00;;;;;;;17.72;41.59;97722.41;10359614;28;20042;-31
2024/01/21 17:26:14;;;;;;;2.37;1.03;;;;;;;17.79;41.77;97730.97;10360301;28;20041;-32
2024/01/21 17:31:15;;;;;;;3.10;1.02;;;;;;;17.81;40.74;97736.91;10358759;28;20412;-35
2024/01/21 17:36:15;;;;;;;3.28;1.17;;;;;;;17.82;39.81;97728.50;10359749;28;20048;-31
2024/01/21 17:41:16;;;;;;;3.90;1.20;;;;;;;17.79;39.66;97710.69;10357974;28;20038;-34
2024/01/21 17:46:17;;;;;;;1.40;1.10;;;;;;;17.83;39.74;97730.22;10357569;28;20042;-33
2024/01/21 17:51:18;;;;;;;1.50;1.15;;;;;;;17.82;39.36;97728.50;10362338;28;20033;-30
2024/01/21 17:56:19;;;;;;;3.10;1.43;;;;;;;17.79;41.76;97736.91;10358922;28;20490;-32
2024/01/21 18:01:19;;;;;;;2.70;1.67;;;;;;;17.83;44.22;97743.72;10360639;28;20129;-32
2024/01/21 18:06:20;;;;;;;5.00;1.13;;;;;;;17.79;40.91;97746.16;10359144;28;20034;-31
2024/01/21 18:11:20;;;;;;;6.07;1.38;;;;;;;17.81;39.43;97749.56;10360171;28;20300;-31
2024/01/21 18:16:22;;;;;;;7.00;1.17;;;;;;;17.82;39.75;97748.78;10358408;28;20568;-31
2024/01/21 18:21:22;;;;;;;2.90;1.17;;;;;;;17.81;40.42;97737.78;10360952;28;20633;-31
2024/01/21 18:26:22;;;;;;;2.03;1.20;;;;;;;17.80;43.85;97740.25;10360308;28;20029;-33
2024/01/21 18:31:23;;;;;;;3.10;1.40;;;;;;;17.85;40.72;97744.63;10359946;28;20048;-32
2024/01/21 18:36:23;;;;;;;2.25;1.20;;;;;;;17.86;40.75;97738.72;10360386;28;20292;-31
2024/01/21 18:41:24;;;;;;;3.63;1.10;;;;;;;17.86;40.97;97730.25;10360940;28;20076;-32
2024/01/21 18:46:24;;;;;;;1.43;0.93;;;;;;;17.85;40.59;97733.63;10355718;28;20038;-32
2024/01/21 18:51:25;;;;;;;1.90;1.00;;;;;;;17.76;40.68;97718.25;10356288;28;20300;-31
2024/01/21 18:56:25;;;;;;;2.60;0.90;;;;;;;17.92;41.54;97721.06;10359944;28;20643;-36
2024/01/21 19:01:26;;;;;;;2.53;1.20;;;;;;;17.90;40.17;97732.03;10359638;28;20121;-35
2024/01/21 19:06:26;;;;;;;1.47;1.00;;;;;;;17.83;40.99;97733.56;10358736;28;20029;-36
2024/01/21 19:11:26;;;;;;;1.57;1.03;;;;;;;17.81;40.20;97731.84;10360236;28;20848;-36
2024/01/21 19:16:27;;;;;;;2.17;1.00;;;;;;;17.83;39.59;97730.22;10359382;28;20309;-38
2024/01/21 19:21:27;;;;;;;4.27;1.63;;;;;;;17.79;41.55;97729.28;10360118;28;20038;-36
2024/01/21 19:26:27;;;;;;;2.33;1.30;;;;;;;17.78;40.96;97744.44;10363446;28;20037;-33
2024/01/21 19:31:28;;;;;;;1.98;1.48;;;;;;;17.76;40.70;97739.34;10362998;28;20038;-33
2024/01/21 19:36:28;;;;;;;2.63;1.42;;;;;;;17.74;40.63;97730.03;10363517;28;20041;-32
2024/01/21 19:41:29;;;;;;;4.47;1.10;;;;;;;17.76;40.57;97743.56;10363949;28;20030;-34
2024/01/21 19:46:29;;;;;;;2.57;1.67;;;;;;;17.74;40.31;97740.16;10363531;28;20289;-37
2024/01/21 19:51:30;;;;;;;2.20;1.00;;;;;;;17.76;40.73;97744.41;10361167;28;20041;-37
2024/01/21 19:56:30;;;;;;;2.73;1.30;;;;;;;17.76;40.08;97749.47;10362479;28;20033;-36
2024/01/21 20:01:30;;;;;;;3.00;1.20;;;;;;;17.76;40.08;97744.41;10362089;28;20104;-33
2024/01/21 20:06:32;;;;;;;2.57;1.33;;;;;;;17.77;40.21;97742.75;10360184;28;20037;-38
2024/01/21 20:11:32;;;;;;;1.70;0.98;;;;;;;17.79;39.97;97738.56;10361542;28;20309;-37
2024/01/21 20:16:33;;;;;;;1.70;1.00;;;;;;;17.76;39.65;97714.03;10361686;28;20399;-36
2024/01/21 20:21:34;;;;;;;1.30;1.10;;;;;;;17.79;39.85;97710.69;10361818;28;20100;-35
2024/01/21 20:26:34;;;;;;;1.83;1.13;;;;;;;17.76;40.31;97701.34;10362110;28;20284;-35
2024/01/21 20:31:34;;;;;;;2.27;1.60;;;;;;;17.77;39.84;97684.50;10361337;28;20609;-35
2024/01/21 20:36:35;;;;;;;1.63;1.17;;;;;;;17.75;39.54;97668.41;10362269;28;20603;-39
2024/01/21 20:41:35;;;;;;;1.73;1.03;;;;;;;17.74;40.28;97672.63;10361160;28;20033;-34
2024/01/21 20:46:35;;;;;;;2.17;1.30;;;;;;;17.72;39.66;97666.69;10361009;28;20841;-34
2024/01/21 20:51:37;;;;;;;3.03;1.07;;;;;;;17.73;40.20;97670.09;10361179;28;20038;-35
2024/01/21 20:56:37;;;;;;;4.85;1.20;;;;;;;17.73;39.89;97663.31;10360796;28;20037;-34
2024/01/21 21:01:37;;;;;;;4.43;1.30;;;;;;;17.73;40.08;97667.56;10360009;28;20502;-37
2024/01/21 21:06:39;;;;;;;1.07;0.83;;;;;;;17.74;40.14;97652.34;10358755;28;20834;-37
2024/01/21 21:11:39;;;;;;;6.80;1.15;;;;;;;17.77;40.36;97656.63;10359693;28;20076;-33
2024/01/21 21:16:39;;;;;;;4.60;1.47;;;;;;;17.76;39.87;97647.31;10362646;28;20044;-34
2024/01/21 21:21:44;;;;;;;1.73;1.23;;;;;;;17.72;40.76;97638.81;10363809;28;20030;-34
2024/01/21 21:26:44;;;;;;;5.07;1.10;;;;;;;17.72;41.20;97630.34;10363263;28;20042;-36
2024/01/21 21:31:45;;;;;;;1.50;0.98;;;;;;;17.68;41.58;97626.91;10362317;28;20490;-33
2024/01/21 21:36:45;;;;;;;4.13;1.00;;;;;;;17.68;42.29;97631.97;10357659;28;20071;-35
2024/01/21 21:41:45;;;;;;;5.37;1.00;;;;;;;17.71;42.10;97623.59;10362778;28;20565;-35
2024/01/21 21:46:46;;;;;;;4.93;1.30;;;;;;;17.70;42.56;97624.41;10362160;28;20050;-33
2024/01/21 21:51:49;;;;;;;2.93;0.80;;;;;;;17.63;42.79;97626.00;10362303;28;20045;-37
2024/01/21 21:56:49;;;;;;;6.18;1.70;;;;;;;17.65;43.25;97611.69;10361428;28;20041;-34
2024/01/21 22:01:49;;;;;;;3.13;1.40;;;;;;;17.61;43.56;97606.53;10361661;28;20030;-39
2024/01/21 22:06:50;;;;;;;2.93;1.17;;;;;;;17.59;43.87;97605.66;10361768;28;20596;-34
2024/01/21 22:11:50;;;;;;;1.80;1.20;;;;;;;17.58;43.84;97601.44;10358518;28;20480;-38
2024/01/21 22:16:50;;;;;;;2.30;0.93;;;;;;;17.56;43.02;97592.97;10360017;28;20034;-35
2024/01/21 22:21:51;;;;;;;2.43;1.17;;;;;;;17.52;42.99;97555.75;10361554;28;20117;-37
2024/01/21 22:26:51;;;;;;;2.50;1.40;;;;;;;17.54;42.76;97554.06;10361088;28;20103;-35
2024/01/21 22:31:51;;;;;;;4.77;1.20;;;;;;;17.54;42.83;97513.56;10359283;28;20038;-35
2024/01/21 22:36:52;;;;;;;1.50;0.67;;;;;;;17.59;42.54;97491.72;10360843;28;20087;-36
2024/01/21 22:41:52;;;;;;;4.00;1.00;;;;;;;17.57;42.88;97499.28;10361383;28;20029;-34
2024/01/21 22:46:55;;;;;;;1.83;1.23;;;;;;;17.58;43.14;97483.25;10361096;28;20351;-36
2024/01/21 22:51:56;;;;;;;3.17;1.13;;;;;;;17.58;42.61;97484.97;10359677;28;21808;-35
2024/01/21 22:56:56;;;;;;;1.70;0.90;;;;;;;17.58;42.66;97484.97;10361304;28;20034;-36
2024/01/21 23:01:57;;;;;;;3.07;1.03;;;;;;;17.59;42.29;97466.41;10360186;28;20042;-35
2024/01/21 23:06:59;;;;;;;2.00;1.05;;;;;;;17.58;42.31;97449.50;10360841;28;20052;-36
2024/01/21 23:11:59;;;;;;;3.15;0.90;;;;;;;17.58;42.25;97457.09;10359626;28;20490;-37
2024/01/21 23:17:00;;;;;;;1.87;0.90;;;;;;;17.63;42.35;97458.88;10359653;28;20045;-33
2024/01/21 23:22:00;;;;;;;0.90;0.63;;;;;;;17.64;42.45;97444.50;10359787;28;20034;-33